createdAt,value
2022-10-16T16:22:08.172Z,14.30
2022-10-16T16:32:14.288Z,20.10
2022-10-16T16:42:17.920Z,32.50
2022-10-16T16:52:20.937Z,22.50
2022-10-16T17:02:24.090Z,24.70
2022-10-16T17:12:27.081Z,23.60
2022-10-16T17:22:30.289Z,26.40
2022-10-16T17:32:33.762Z,23.30
2022-10-16T17:42:36.818Z,19.30
2022-10-16T17:52:39.884Z,17.40
2022-10-16T18:02:43.524Z,18.10
2022-10-16T18:12:49.943Z,16.90
2022-10-16T18:22:54.428Z,15.90
2022-10-16T18:32:57.483Z,14.90
2022-10-16T18:43:00.613Z,15.50
2022-10-16T18:53:03.646Z,14.50
2022-10-16T19:03:06.698Z,14.50
2022-10-16T19:13:11.060Z,15.00
2022-10-16T19:23:14.505Z,15.70
2022-10-16T19:33:17.583Z,15.90
2022-10-16T19:43:20.554Z,16.40
2022-10-16T19:53:23.629Z,15.70
2022-10-16T20:03:26.640Z,15.70
2022-10-16T20:13:30.150Z,15.40
2022-10-16T20:23:33.970Z,15.30
2022-10-16T20:33:39.294Z,15.40
2022-10-16T20:43:47.965Z,14.20
2022-10-16T20:53:57.137Z,15.40
2022-10-16T21:04:02.858Z,14.80
2022-10-16T21:14:08.394Z,15.20
2022-10-16T21:24:13.704Z,15.40
2022-10-16T21:34:19.827Z,15.00
2022-10-16T21:44:23.100Z,15.80
2022-10-16T21:54:26.037Z,14.80
2022-10-16T22:04:29.085Z,16.30
2022-10-16T22:14:32.112Z,16.00
2022-10-16T22:24:35.166Z,15.60
2022-10-16T22:34:38.168Z,15.90
2022-10-16T22:44:41.361Z,16.00
2022-10-16T22:54:44.296Z,16.10
2022-10-16T23:04:47.354Z,15.30
2022-10-16T23:14:50.932Z,16.70
2022-10-16T23:24:53.908Z,15.40
2022-10-16T23:34:56.957Z,14.90
2022-10-16T23:44:59.973Z,15.10
2022-10-16T23:55:03.151Z,15.10
